METAR Data
IDs: Format: Raw Decoded Include TAF

Data at: 0017 UTC 20 Sep 2020

No METAR found for FWKI

TAF FWKI 191440Z 1918/2024 09010KT CAVOK